sensor_id;sensor_type;location;lat;lon;timestamp;P1;durP1;ratioP1;P2;durP2;ratioP2
7989;SDS011;4040;42.848;23.034;2023-04-06T00:01:59;15.87;;;10.53;;
7989;SDS011;4040;42.848;23.034;2023-04-06T00:07:48;12.30;;;9.63;;
7989;SDS011;4040;42.848;23.034;2023-04-06T00:13:48;12.20;;;9.83;;
7989;SDS011;4040;42.848;23.034;2023-04-06T00:19:37;17.50;;;11.33;;
7989;SDS011;4040;42.848;23.034;2023-04-06T00:25:25;15.13;;;11.53;;
7989;SDS011;4040;42.848;23.034;2023-04-06T00:31:16;15.13;;;11.03;;
7989;SDS011;4040;42.848;23.034;2023-04-06T00:37:04;15.37;;;10.57;;
7989;SDS011;4040;42.848;23.034;2023-04-06T00:42:53;12.00;;;9.40;;
7989;SDS011;4040;42.848;23.034;2023-04-06T00:48:43;21.73;;;14.70;;
7989;SDS011;4040;42.848;23.034;2023-04-06T00:54:32;15.07;;;10.87;;
7989;SDS011;4040;42.848;23.034;2023-04-06T01:00:21;15.50;;;11.50;;
7989;SDS011;4040;42.848;23.034;2023-04-06T01:10:33;18.93;;;11.67;;
7989;SDS011;4040;42.848;23.034;2023-04-06T01:16:22;15.80;;;11.93;;
7989;SDS011;4040;42.848;23.034;2023-04-06T01:22:15;14.57;;;10.77;;
7989;SDS011;4040;42.848;23.034;2023-04-06T01:28:04;15.03;;;10.83;;
7989;SDS011;4040;42.848;23.034;2023-04-06T01:33:53;18.30;;;11.40;;
7989;SDS011;4040;42.848;23.034;2023-04-06T01:39:44;18.47;;;12.20;;
7989;SDS011;4040;42.848;23.034;2023-04-06T01:45:32;16.73;;;12.80;;
7989;SDS011;4040;42.848;23.034;2023-04-06T01:51:21;20.33;;;12.70;;
7989;SDS011;4040;42.848;23.034;2023-04-06T01:57:12;18.30;;;11.97;;
7989;SDS011;4040;42.848;23.034;2023-04-06T02:03:01;19.10;;;13.30;;
7989;SDS011;4040;42.848;23.034;2023-04-06T02:13:13;17.07;;;11.40;;
7989;SDS011;4040;42.848;23.034;2023-04-06T02:19:02;17.27;;;12.60;;
7989;SDS011;4040;42.848;23.034;2023-04-06T02:24:51;15.40;;;10.93;;
7989;SDS011;4040;42.848;23.034;2023-04-06T02:30:41;15.27;;;11.37;;
7989;SDS011;4040;42.848;23.034;2023-04-06T02:36:30;16.43;;;12.37;;
7989;SDS011;4040;42.848;23.034;2023-04-06T02:42:19;18.93;;;12.33;;
7989;SDS011;4040;42.848;23.034;2023-04-06T02:48:09;19.57;;;12.97;;
7989;SDS011;4040;42.848;23.034;2023-04-06T02:53:58;19.23;;;13.07;;
7989;SDS011;4040;42.848;23.034;2023-04-06T02:59:47;18.63;;;12.50;;
7989;SDS011;4040;42.848;23.034;2023-04-06T03:05:37;19.23;;;13.23;;
7989;SDS011;4040;42.848;23.034;2023-04-06T03:15:47;17.57;;;11.70;;
7989;SDS011;4040;42.848;23.034;2023-04-06T03:21:38;21.97;;;13.50;;
7989;SDS011;4040;42.848;23.034;2023-04-06T03:27:26;17.97;;;11.93;;
7989;SDS011;4040;42.848;23.034;2023-04-06T03:33:16;17.93;;;10.93;;
7989;SDS011;4040;42.848;23.034;2023-04-06T03:39:06;21.47;;;13.03;;
7989;SDS011;4040;42.848;23.034;2023-04-06T03:44:55;19.80;;;12.17;;
7989;SDS011;4040;42.848;23.034;2023-04-06T03:50:43;18.83;;;12.23;;
7989;SDS011;4040;42.848;23.034;2023-04-06T03:56:33;18.60;;;12.77;;
7989;SDS011;4040;42.848;23.034;2023-04-06T04:02:22;20.10;;;12.80;;
7989;SDS011;4040;42.848;23.034;2023-04-06T04:08:10;21.80;;;13.73;;
7989;SDS011;4040;42.848;23.034;2023-04-06T04:18:22;26.03;;;13.97;;
7989;SDS011;4040;42.848;23.034;2023-04-06T04:24:10;26.50;;;15.10;;
7989;SDS011;4040;42.848;23.034;2023-04-06T04:29:59;23.87;;;13.37;;
7989;SDS011;4040;42.848;23.034;2023-04-06T04:35:49;23.37;;;15.27;;
7989;SDS011;4040;42.848;23.034;2023-04-06T04:41:38;26.47;;;15.00;;
7989;SDS011;4040;42.848;23.034;2023-04-06T04:47:27;24.80;;;14.67;;
7989;SDS011;4040;42.848;23.034;2023-04-06T04:53:17;23.27;;;13.83;;
7989;SDS011;4040;42.848;23.034;2023-04-06T04:59:06;19.63;;;12.87;;
7989;SDS011;4040;42.848;23.034;2023-04-06T05:04:55;26.07;;;13.57;;
7989;SDS011;4040;42.848;23.034;2023-04-06T05:10:45;19.00;;;12.77;;
7989;SDS011;4040;42.848;23.034;2023-04-06T05:20:56;23.87;;;13.60;;
7989;SDS011;4040;42.848;23.034;2023-04-06T05:26:47;23.97;;;15.77;;
7989;SDS011;4040;42.848;23.034;2023-04-06T05:32:36;22.67;;;14.83;;
7989;SDS011;4040;42.848;23.034;2023-04-06T05:38:25;26.20;;;15.03;;
7989;SDS011;4040;42.848;23.034;2023-04-06T05:44:16;21.37;;;12.67;;
7989;SDS011;4040;42.848;23.034;2023-04-06T05:50:05;18.83;;;11.83;;
7989;SDS011;4040;42.848;23.034;2023-04-06T05:55:54;20.03;;;12.40;;
7989;SDS011;4040;42.848;23.034;2023-04-06T06:01:44;22.77;;;13.47;;
7989;SDS011;4040;42.848;23.034;2023-04-06T06:07:33;22.43;;;12.13;;
7989;SDS011;4040;42.848;23.034;2023-04-06T06:13:22;31.37;;;13.33;;
7989;SDS011;4040;42.848;23.034;2023-04-06T06:23:34;20.37;;;11.97;;
7989;SDS011;4040;42.848;23.034;2023-04-06T06:29:22;18.47;;;12.77;;
7989;SDS011;4040;42.848;23.034;2023-04-06T06:35:11;17.93;;;11.87;;
7989;SDS011;4040;42.848;23.034;2023-04-06T06:41:02;16.30;;;11.30;;
7989;SDS011;4040;42.848;23.034;2023-04-06T06:46:50;21.43;;;12.10;;
7989;SDS011;4040;42.848;23.034;2023-04-06T06:52:39;28.10;;;16.60;;
7989;SDS011;4040;42.848;23.034;2023-04-06T06:58:30;29.63;;;17.00;;
7989;SDS011;4040;42.848;23.034;2023-04-06T07:04:18;31.87;;;17.97;;
7989;SDS011;4040;42.848;23.034;2023-04-06T07:10:08;37.63;;;19.47;;
7989;SDS011;4040;42.848;23.034;2023-04-06T07:15:58;32.33;;;17.30;;
7989;SDS011;4040;42.848;23.034;2023-04-06T07:26:09;24.73;;;14.93;;
7989;SDS011;4040;42.848;23.034;2023-04-06T07:32:00;21.67;;;12.37;;
7989;SDS011;4040;42.848;23.034;2023-04-06T07:37:48;18.13;;;12.43;;
7989;SDS011;4040;42.848;23.034;2023-04-06T07:43:37;24.10;;;14.70;;
7989;SDS011;4040;42.848;23.034;2023-04-06T07:49:28;17.93;;;12.10;;
7989;SDS011;4040;42.848;23.034;2023-04-06T07:55:16;18.17;;;13.00;;
7989;SDS011;4040;42.848;23.034;2023-04-06T08:01:05;21.83;;;12.17;;
7989;SDS011;4040;42.848;23.034;2023-04-06T08:06:56;18.63;;;12.00;;
7989;SDS011;4040;42.848;23.034;2023-04-06T08:12:44;18.43;;;11.87;;
7989;SDS011;4040;42.848;23.034;2023-04-06T08:18:33;17.93;;;11.30;;
7989;SDS011;4040;42.848;23.034;2023-04-06T08:28:45;19.63;;;12.53;;
7989;SDS011;4040;42.848;23.034;2023-04-06T08:34:33;19.07;;;12.30;;
7989;SDS011;4040;42.848;23.034;2023-04-06T08:40:22;17.50;;;11.87;;
7989;SDS011;4040;42.848;23.034;2023-04-06T08:46:13;15.80;;;10.23;;
7989;SDS011;4040;42.848;23.034;2023-04-06T08:52:02;20.20;;;10.40;;
7989;SDS011;4040;42.848;23.034;2023-04-06T08:57:53;18.27;;;10.63;;
7989;SDS011;4040;42.848;23.034;2023-04-06T09:03:44;16.37;;;10.20;;
7989;SDS011;4040;42.848;23.034;2023-04-06T09:09:34;16.17;;;9.40;;
7989;SDS011;4040;42.848;23.034;2023-04-06T09:15:23;15.50;;;10.17;;
7989;SDS011;4040;42.848;23.034;2023-04-06T09:21:16;11.23;;;8.67;;
7989;SDS011;4040;42.848;23.034;2023-04-06T09:31:28;15.30;;;9.80;;
7989;SDS011;4040;42.848;23.034;2023-04-06T09:37:21;22.80;;;12.10;;
7989;SDS011;4040;42.848;23.034;2023-04-06T09:43:09;17.23;;;11.03;;
7989;SDS011;4040;42.848;23.034;2023-04-06T09:48:59;14.73;;;10.57;;
7989;SDS011;4040;42.848;23.034;2023-04-06T09:54:50;13.40;;;10.10;;
7989;SDS011;4040;42.848;23.034;2023-04-06T10:00:42;12.00;;;8.73;;
7989;SDS011;4040;42.848;23.034;2023-04-06T10:06:33;11.40;;;9.07;;
7989;SDS011;4040;42.848;23.034;2023-04-06T10:12:25;15.90;;;10.23;;
7989;SDS011;4040;42.848;23.034;2023-04-06T10:18:14;20.13;;;9.77;;
7989;SDS011;4040;42.848;23.034;2023-04-06T10:24:06;16.80;;;10.67;;
7989;SDS011;4040;42.848;23.034;2023-04-06T10:34:21;13.77;;;9.60;;
7989;SDS011;4040;42.848;23.034;2023-04-06T10:40:17;17.13;;;10.50;;
7989;SDS011;4040;42.848;23.034;2023-04-06T10:46:07;17.03;;;11.17;;
7989;SDS011;4040;42.848;23.034;2023-04-06T10:51:59;22.87;;;10.70;;
7989;SDS011;4040;42.848;23.034;2023-04-06T10:57:47;11.40;;;8.80;;
7989;SDS011;4040;42.848;23.034;2023-04-06T11:03:42;15.13;;;9.10;;
7989;SDS011;4040;42.848;23.034;2023-04-06T11:09:33;11.63;;;7.57;;
7989;SDS011;4040;42.848;23.034;2023-04-06T11:15:23;12.50;;;8.53;;
7989;SDS011;4040;42.848;23.034;2023-04-06T11:21:12;13.93;;;9.47;;
7989;SDS011;4040;42.848;23.034;2023-04-06T11:27:02;10.73;;;7.73;;
7989;SDS011;4040;42.848;23.034;2023-04-06T11:37:13;14.60;;;9.63;;
7989;SDS011;4040;42.848;23.034;2023-04-06T11:43:04;16.20;;;9.93;;
7989;SDS011;4040;42.848;23.034;2023-04-06T11:48:53;18.10;;;10.20;;
7989;SDS011;4040;42.848;23.034;2023-04-06T11:54:46;10.87;;;6.83;;
7989;SDS011;4040;42.848;23.034;2023-04-06T12:00:37;16.30;;;8.63;;
7989;SDS011;4040;42.848;23.034;2023-04-06T12:06:31;13.13;;;8.83;;
7989;SDS011;4040;42.848;23.034;2023-04-06T12:12:20;19.97;;;10.17;;
7989;SDS011;4040;42.848;23.034;2023-04-06T12:18:10;10.73;;;7.30;;
7989;SDS011;4040;42.848;23.034;2023-04-06T12:23:59;9.00;;;6.87;;
7989;SDS011;4040;42.848;23.034;2023-04-06T12:29:48;7.93;;;5.87;;
7989;SDS011;4040;42.848;23.034;2023-04-06T12:40:00;10.63;;;7.47;;
7989;SDS011;4040;42.848;23.034;2023-04-06T12:45:50;9.57;;;7.40;;
7989;SDS011;4040;42.848;23.034;2023-04-06T12:51:39;13.10;;;8.43;;
7989;SDS011;4040;42.848;23.034;2023-04-06T12:57:29;12.07;;;7.93;;
7989;SDS011;4040;42.848;23.034;2023-04-06T13:03:18;14.63;;;9.10;;
7989;SDS011;4040;42.848;23.034;2023-04-06T13:09:07;10.53;;;8.00;;
7989;SDS011;4040;42.848;23.034;2023-04-06T13:14:57;16.23;;;8.23;;
7989;SDS011;4040;42.848;23.034;2023-04-06T13:20:46;11.70;;;8.07;;
7989;SDS011;4040;42.848;23.034;2023-04-06T13:26:35;19.53;;;11.50;;
7989;SDS011;4040;42.848;23.034;2023-04-06T13:32:26;8.63;;;7.13;;
7989;SDS011;4040;42.848;23.034;2023-04-06T13:42:36;17.50;;;11.50;;
7989;SDS011;4040;42.848;23.034;2023-04-06T13:48:28;16.30;;;10.27;;
7989;SDS011;4040;42.848;23.034;2023-04-06T13:54:17;16.13;;;9.90;;
7989;SDS011;4040;42.848;23.034;2023-04-06T14:00:08;14.60;;;10.30;;
7989;SDS011;4040;42.848;23.034;2023-04-06T14:05:59;11.47;;;8.10;;
7989;SDS011;4040;42.848;23.034;2023-04-06T14:11:48;11.33;;;8.00;;
7989;SDS011;4040;42.848;23.034;2023-04-06T14:17:37;13.83;;;9.43;;
7989;SDS011;4040;42.848;23.034;2023-04-06T14:23:27;12.27;;;8.80;;
7989;SDS011;4040;42.848;23.034;2023-04-06T14:29:16;17.33;;;11.20;;
7989;SDS011;4040;42.848;23.034;2023-04-06T14:35:05;17.23;;;13.47;;
7989;SDS011;4040;42.848;23.034;2023-04-06T14:45:18;26.60;;;13.10;;
7989;SDS011;4040;42.848;23.034;2023-04-06T14:51:08;15.27;;;10.17;;
7989;SDS011;4040;42.848;23.034;2023-04-06T14:56:57;15.30;;;10.03;;
7989;SDS011;4040;42.848;23.034;2023-04-06T15:02:48;18.83;;;10.63;;
7989;SDS011;4040;42.848;23.034;2023-04-06T15:08:37;16.63;;;11.53;;
7989;SDS011;4040;42.848;23.034;2023-04-06T15:14:26;13.33;;;9.80;;
7989;SDS011;4040;42.848;23.034;2023-04-06T15:20:16;20.50;;;12.17;;
7989;SDS011;4040;42.848;23.034;2023-04-06T15:26:05;20.50;;;12.03;;
7989;SDS011;4040;42.848;23.034;2023-04-06T15:31:54;30.80;;;18.57;;
7989;SDS011;4040;42.848;23.034;2023-04-06T15:37:44;21.33;;;13.40;;
7989;SDS011;4040;42.848;23.034;2023-04-06T15:47:55;16.57;;;11.80;;
7989;SDS011;4040;42.848;23.034;2023-04-06T15:53:45;24.40;;;14.60;;
7989;SDS011;4040;42.848;23.034;2023-04-06T15:59:34;18.83;;;12.47;;
7989;SDS011;4040;42.848;23.034;2023-04-06T16:05:23;42.43;;;22.80;;
7989;SDS011;4040;42.848;23.034;2023-04-06T16:11:13;33.53;;;20.23;;
7989;SDS011;4040;42.848;23.034;2023-04-06T16:17:02;29.13;;;19.37;;
7989;SDS011;4040;42.848;23.034;2023-04-06T16:22:51;30.23;;;18.10;;
7989;SDS011;4040;42.848;23.034;2023-04-06T16:28:41;17.00;;;12.27;;
7989;SDS011;4040;42.848;23.034;2023-04-06T16:34:30;34.17;;;15.77;;
7989;SDS011;4040;42.848;23.034;2023-04-06T16:40:19;36.20;;;19.70;;
7989;SDS011;4040;42.848;23.034;2023-04-06T16:50:31;34.57;;;19.40;;
7989;SDS011;4040;42.848;23.034;2023-04-06T16:56:21;42.67;;;26.10;;
7989;SDS011;4040;42.848;23.034;2023-04-06T17:02:10;54.17;;;24.00;;
7989;SDS011;4040;42.848;23.034;2023-04-06T17:08:00;116.70;;;38.97;;
7989;SDS011;4040;42.848;23.034;2023-04-06T17:13:49;111.63;;;42.53;;
7989;SDS011;4040;42.848;23.034;2023-04-06T17:19:37;44.50;;;21.90;;
7989;SDS011;4040;42.848;23.034;2023-04-06T17:25:28;41.47;;;21.80;;
7989;SDS011;4040;42.848;23.034;2023-04-06T17:31:16;32.23;;;18.13;;
7989;SDS011;4040;42.848;23.034;2023-04-06T17:37:05;45.37;;;24.83;;
7989;SDS011;4040;42.848;23.034;2023-04-06T17:42:55;36.80;;;18.63;;
7989;SDS011;4040;42.848;23.034;2023-04-06T17:53:06;61.63;;;25.23;;
7989;SDS011;4040;42.848;23.034;2023-04-06T17:58:56;55.60;;;25.87;;
7989;SDS011;4040;42.848;23.034;2023-04-06T18:04:45;53.00;;;25.47;;
7989;SDS011;4040;42.848;23.034;2023-04-06T18:10:36;60.67;;;29.70;;
7989;SDS011;4040;42.848;23.034;2023-04-06T18:16:27;82.60;;;31.77;;
7989;SDS011;4040;42.848;23.034;2023-04-06T18:22:19;60.63;;;29.67;;
7989;SDS011;4040;42.848;23.034;2023-04-06T18:28:08;67.93;;;31.77;;
7989;SDS011;4040;42.848;23.034;2023-04-06T18:33:58;53.00;;;25.67;;
7989;SDS011;4040;42.848;23.034;2023-04-06T18:39:49;71.23;;;27.73;;
7989;SDS011;4040;42.848;23.034;2023-04-06T18:45:38;32.60;;;18.20;;
7989;SDS011;4040;42.848;23.034;2023-04-06T18:55:52;39.63;;;17.83;;
7989;SDS011;4040;42.848;23.034;2023-04-06T19:01:42;34.97;;;18.23;;
7989;SDS011;4040;42.848;23.034;2023-04-06T19:07:36;338.53;;;104.83;;
7989;SDS011;4040;42.848;23.034;2023-04-06T19:13:26;283.33;;;71.43;;
7989;SDS011;4040;42.848;23.034;2023-04-06T19:19:15;126.87;;;35.77;;
7989;SDS011;4040;42.848;23.034;2023-04-06T19:25:05;381.13;;;100.50;;
7989;SDS011;4040;42.848;23.034;2023-04-06T19:30:56;59.50;;;23.93;;
7989;SDS011;4040;42.848;23.034;2023-04-06T19:36:46;34.60;;;16.73;;
7989;SDS011;4040;42.848;23.034;2023-04-06T19:42:35;55.70;;;25.77;;
7989;SDS011;4040;42.848;23.034;2023-04-06T19:48:25;51.40;;;26.00;;
7989;SDS011;4040;42.848;23.034;2023-04-06T19:58:35;53.13;;;26.20;;
7989;SDS011;4040;42.848;23.034;2023-04-06T20:04:26;43.77;;;23.50;;
7989;SDS011;4040;42.848;23.034;2023-04-06T20:10:14;71.33;;;32.57;;
7989;SDS011;4040;42.848;23.034;2023-04-06T20:16:04;81.47;;;34.33;;
7989;SDS011;4040;42.848;23.034;2023-04-06T20:21:54;85.50;;;34.30;;
7989;SDS011;4040;42.848;23.034;2023-04-06T20:27:44;55.30;;;27.00;;
7989;SDS011;4040;42.848;23.034;2023-04-06T20:33:33;44.87;;;20.90;;
7989;SDS011;4040;42.848;23.034;2023-04-06T20:39:24;32.07;;;15.97;;
7989;SDS011;4040;42.848;23.034;2023-04-06T20:45:13;54.07;;;22.97;;
7989;SDS011;4040;42.848;23.034;2023-04-06T20:51:02;55.73;;;23.40;;
7989;SDS011;4040;42.848;23.034;2023-04-06T21:01:15;35.03;;;20.17;;
7989;SDS011;4040;42.848;23.034;2023-04-06T21:07:05;32.77;;;17.50;;
7989;SDS011;4040;42.848;23.034;2023-04-06T21:12:54;35.67;;;16.60;;
7989;SDS011;4040;42.848;23.034;2023-04-06T21:18:44;162.20;;;42.20;;
7989;SDS011;4040;42.848;23.034;2023-04-06T21:24:32;147.27;;;43.47;;
7989;SDS011;4040;42.848;23.034;2023-04-06T21:30:21;74.80;;;28.30;;
7989;SDS011;4040;42.848;23.034;2023-04-06T21:36:21;208.77;;;43.37;;
7989;SDS011;4040;42.848;23.034;2023-04-06T21:42:10;129.30;;;31.97;;
7989;SDS011;4040;42.848;23.034;2023-04-06T21:47:59;161.93;;;42.10;;
7989;SDS011;4040;42.848;23.034;2023-04-06T21:53:50;102.77;;;33.57;;
7989;SDS011;4040;42.848;23.034;2023-04-06T22:08:27;45.33;;;24.43;;
7989;SDS011;4040;42.848;23.034;2023-04-06T22:14:16;34.87;;;19.30;;
7989;SDS011;4040;42.848;23.034;2023-04-06T22:20:05;43.00;;;23.23;;
7989;SDS011;4040;42.848;23.034;2023-04-06T22:25:56;34.33;;;20.17;;
7989;SDS011;4040;42.848;23.034;2023-04-06T22:31:44;40.70;;;22.10;;
7989;SDS011;4040;42.848;23.034;2023-04-06T22:37:33;33.97;;;16.93;;
7989;SDS011;4040;42.848;23.034;2023-04-06T22:43:24;28.13;;;16.23;;
7989;SDS011;4040;42.848;23.034;2023-04-06T22:49:12;52.90;;;19.87;;
7989;SDS011;4040;42.848;23.034;2023-04-06T22:55:01;35.60;;;19.60;;
7989;SDS011;4040;42.848;23.034;2023-04-06T23:00:52;34.30;;;20.37;;
7989;SDS011;4040;42.848;23.034;2023-04-06T23:11:02;38.73;;;22.70;;
7989;SDS011;4040;42.848;23.034;2023-04-06T23:16:52;35.60;;;20.40;;
7989;SDS011;4040;42.848;23.034;2023-04-06T23:22:41;37.77;;;20.67;;
7989;SDS011;4040;42.848;23.034;2023-04-06T23:28:30;29.10;;;18.20;;
7989;SDS011;4040;42.848;23.034;2023-04-06T23:34:20;30.10;;;17.87;;
7989;SDS011;4040;42.848;23.034;2023-04-06T23:40:08;24.47;;;15.60;;
7989;SDS011;4040;42.848;23.034;2023-04-06T23:45:58;54.10;;;23.27;;
7989;SDS011;4040;42.848;23.034;2023-04-06T23:51:48;123.03;;;30.87;;
7989;SDS011;4040;42.848;23.034;2023-04-06T23:57:37;72.57;;;21.27;;
